sensor_id;sensor_type;location;lat;lon;timestamp;temperature;humidity
79711;DHT22;69465;51.630;6.570;2023-06-05T00:00:00;14.80;49.30
79711;DHT22;69465;51.630;6.570;2023-06-05T00:02:26;14.70;49.20
79711;DHT22;69465;51.630;6.570;2023-06-05T00:04:53;14.70;49.30
79711;DHT22;69465;51.630;6.570;2023-06-05T00:07:20;14.70;49.30
79711;DHT22;69465;51.630;6.570;2023-06-05T00:09:47;14.60;49.20
79711;DHT22;69465;51.630;6.570;2023-06-05T00:12:13;14.60;49.40
79711;DHT22;69465;51.630;6.570;2023-06-05T00:14:43;14.60;49.50
79711;DHT22;69465;51.630;6.570;2023-06-05T00:17:10;14.60;49.70
79711;DHT22;69465;51.630;6.570;2023-06-05T00:19:36;14.50;49.40
79711;DHT22;69465;51.630;6.570;2023-06-05T00:22:03;14.60;49.80
79711;DHT22;69465;51.630;6.570;2023-06-05T00:24:30;14.50;49.90
79711;DHT22;69465;51.630;6.570;2023-06-05T00:26:56;14.40;49.80
79711;DHT22;69465;51.630;6.570;2023-06-05T00:29:23;14.40;49.90
79711;DHT22;69465;51.630;6.570;2023-06-05T00:31:50;14.40;50.40
79711;DHT22;69465;51.630;6.570;2023-06-05T00:34:17;14.30;50.10
79711;DHT22;69465;51.630;6.570;2023-06-05T00:36:43;14.30;50.20
79711;DHT22;69465;51.630;6.570;2023-06-05T00:39:10;14.30;50.30
79711;DHT22;69465;51.630;6.570;2023-06-05T00:41:37;14.30;50.30
79711;DHT22;69465;51.630;6.570;2023-06-05T00:44:03;14.20;50.60
79711;DHT22;69465;51.630;6.570;2023-06-05T00:46:30;14.10;50.60
79711;DHT22;69465;51.630;6.570;2023-06-05T00:48:57;14.10;50.70
79711;DHT22;69465;51.630;6.570;2023-06-05T00:51:24;14.10;50.90
79711;DHT22;69465;51.630;6.570;2023-06-05T00:53:51;14.00;51.10
79711;DHT22;69465;51.630;6.570;2023-06-05T00:56:18;14.00;51.10
79711;DHT22;69465;51.630;6.570;2023-06-05T00:58:45;14.00;51.40
79711;DHT22;69465;51.630;6.570;2023-06-05T01:01:12;13.90;51.30
79711;DHT22;69465;51.630;6.570;2023-06-05T01:03:39;13.90;51.30
79711;DHT22;69465;51.630;6.570;2023-06-05T01:06:05;13.90;51.40
79711;DHT22;69465;51.630;6.570;2023-06-05T01:08:33;13.80;51.50
79711;DHT22;69465;51.630;6.570;2023-06-05T01:11:01;13.80;51.90
79711;DHT22;69465;51.630;6.570;2023-06-05T01:13:32;13.80;51.90
79711;DHT22;69465;51.630;6.570;2023-06-05T01:16:00;13.70;52.00
79711;DHT22;69465;51.630;6.570;2023-06-05T01:18:28;13.70;52.10
79711;DHT22;69465;51.630;6.570;2023-06-05T01:20:59;13.70;52.10
79711;DHT22;69465;51.630;6.570;2023-06-05T01:23:25;13.70;52.30
79711;DHT22;69465;51.630;6.570;2023-06-05T01:25:53;13.60;52.20
79711;DHT22;69465;51.630;6.570;2023-06-05T01:28:25;13.60;52.30
79711;DHT22;69465;51.630;6.570;2023-06-05T01:31:02;13.60;52.40
79711;DHT22;69465;51.630;6.570;2023-06-05T01:33:35;13.60;52.70
79711;DHT22;69465;51.630;6.570;2023-06-05T01:36:04;13.50;52.60
79711;DHT22;69465;51.630;6.570;2023-06-05T01:38:34;13.50;52.90
79711;DHT22;69465;51.630;6.570;2023-06-05T01:41:02;13.40;52.80
79711;DHT22;69465;51.630;6.570;2023-06-05T01:43:30;13.40;52.80
79711;DHT22;69465;51.630;6.570;2023-06-05T01:45:57;13.40;52.80
79711;DHT22;69465;51.630;6.570;2023-06-05T01:48:26;13.30;52.70
79711;DHT22;69465;51.630;6.570;2023-06-05T01:50:57;13.30;52.70
79711;DHT22;69465;51.630;6.570;2023-06-05T01:53:24;13.30;52.70
79711;DHT22;69465;51.630;6.570;2023-06-05T01:55:51;13.30;52.70
79711;DHT22;69465;51.630;6.570;2023-06-05T01:58:20;13.20;52.60
79711;DHT22;69465;51.630;6.570;2023-06-05T02:00:47;13.20;52.60
79711;DHT22;69465;51.630;6.570;2023-06-05T02:03:14;13.20;52.60
79711;DHT22;69465;51.630;6.570;2023-06-05T02:05:41;13.10;52.60
79711;DHT22;69465;51.630;6.570;2023-06-05T02:08:08;13.10;52.90
79711;DHT22;69465;51.630;6.570;2023-06-05T02:10:35;13.20;52.80
79711;DHT22;69465;51.630;6.570;2023-06-05T02:13:03;13.10;53.00
79711;DHT22;69465;51.630;6.570;2023-06-05T02:15:30;13.00;53.00
79711;DHT22;69465;51.630;6.570;2023-06-05T02:17:56;13.00;53.20
79711;DHT22;69465;51.630;6.570;2023-06-05T02:20:25;12.90;53.20
79711;DHT22;69465;51.630;6.570;2023-06-05T02:22:51;12.90;53.50
79711;DHT22;69465;51.630;6.570;2023-06-05T02:25:19;12.80;53.50
79711;DHT22;69465;51.630;6.570;2023-06-05T02:27:46;12.80;53.60
79711;DHT22;69465;51.630;6.570;2023-06-05T02:30:13;12.70;53.50
79711;DHT22;69465;51.630;6.570;2023-06-05T02:32:40;12.70;53.80
79711;DHT22;69465;51.630;6.570;2023-06-05T02:35:08;12.70;54.00
79711;DHT22;69465;51.630;6.570;2023-06-05T02:37:35;12.70;54.10
79711;DHT22;69465;51.630;6.570;2023-06-05T02:40:01;12.60;54.20
79711;DHT22;69465;51.630;6.570;2023-06-05T02:42:28;12.60;54.30
79711;DHT22;69465;51.630;6.570;2023-06-05T02:44:55;12.60;54.40
79711;DHT22;69465;51.630;6.570;2023-06-05T02:47:21;12.60;54.40
79711;DHT22;69465;51.630;6.570;2023-06-05T02:49:48;12.50;54.60
79711;DHT22;69465;51.630;6.570;2023-06-05T02:52:15;12.50;54.90
79711;DHT22;69465;51.630;6.570;2023-06-05T02:54:42;12.40;54.60
79711;DHT22;69465;51.630;6.570;2023-06-05T02:57:08;12.40;54.80
79711;DHT22;69465;51.630;6.570;2023-06-05T02:59:35;12.40;55.00
79711;DHT22;69465;51.630;6.570;2023-06-05T03:02:02;12.30;54.90
79711;DHT22;69465;51.630;6.570;2023-06-05T03:04:29;12.30;55.20
79711;DHT22;69465;51.630;6.570;2023-06-05T03:06:56;12.20;55.10
79711;DHT22;69465;51.630;6.570;2023-06-05T03:09:22;12.20;55.20
79711;DHT22;69465;51.630;6.570;2023-06-05T03:11:49;12.20;55.30
79711;DHT22;69465;51.630;6.570;2023-06-05T03:14:16;12.10;55.40
79711;DHT22;69465;51.630;6.570;2023-06-05T03:16:43;12.10;55.70
79711;DHT22;69465;51.630;6.570;2023-06-05T03:19:09;12.10;55.70
79711;DHT22;69465;51.630;6.570;2023-06-05T03:21:37;12.00;55.90
79711;DHT22;69465;51.630;6.570;2023-06-05T03:24:06;12.00;56.10
79711;DHT22;69465;51.630;6.570;2023-06-05T03:26:33;12.00;56.00
79711;DHT22;69465;51.630;6.570;2023-06-05T03:29:00;12.00;56.00
79711;DHT22;69465;51.630;6.570;2023-06-05T03:31:27;11.90;56.00
79711;DHT22;69465;51.630;6.570;2023-06-05T03:33:53;11.90;56.10
79711;DHT22;69465;51.630;6.570;2023-06-05T03:36:20;11.90;56.10
79711;DHT22;69465;51.630;6.570;2023-06-05T03:38:47;11.90;56.10
79711;DHT22;69465;51.630;6.570;2023-06-05T03:41:14;12.00;56.10
79711;DHT22;69465;51.630;6.570;2023-06-05T03:43:41;11.90;56.10
79711;DHT22;69465;51.630;6.570;2023-06-05T03:46:07;11.90;56.10
79711;DHT22;69465;51.630;6.570;2023-06-05T03:48:34;12.00;56.20
79711;DHT22;69465;51.630;6.570;2023-06-05T03:51:01;12.00;56.10
79711;DHT22;69465;51.630;6.570;2023-06-05T03:53:27;12.00;56.10
79711;DHT22;69465;51.630;6.570;2023-06-05T03:55:55;12.00;56.10
79711;DHT22;69465;51.630;6.570;2023-06-05T03:58:21;12.00;56.10
79711;DHT22;69465;51.630;6.570;2023-06-05T04:00:48;12.00;56.00
79711;DHT22;69465;51.630;6.570;2023-06-05T04:03:15;12.00;56.10
79711;DHT22;69465;51.630;6.570;2023-06-05T04:05:42;12.00;56.20
79711;DHT22;69465;51.630;6.570;2023-06-05T04:08:09;12.10;56.20
79711;DHT22;69465;51.630;6.570;2023-06-05T04:10:37;12.10;56.10
79711;DHT22;69465;51.630;6.570;2023-06-05T04:13:04;12.10;56.00
79711;DHT22;69465;51.630;6.570;2023-06-05T04:15:31;12.10;56.20
79711;DHT22;69465;51.630;6.570;2023-06-05T04:17:58;12.10;56.20
79711;DHT22;69465;51.630;6.570;2023-06-05T04:20:24;12.10;56.20
79711;DHT22;69465;51.630;6.570;2023-06-05T04:22:51;12.20;56.10
79711;DHT22;69465;51.630;6.570;2023-06-05T04:25:18;12.30;56.20
79711;DHT22;69465;51.630;6.570;2023-06-05T04:27:48;12.30;56.30
79711;DHT22;69465;51.630;6.570;2023-06-05T04:30:15;12.30;56.00
79711;DHT22;69465;51.630;6.570;2023-06-05T04:32:41;12.40;55.80
79711;DHT22;69465;51.630;6.570;2023-06-05T04:35:09;12.40;56.00
79711;DHT22;69465;51.630;6.570;2023-06-05T04:37:36;12.40;55.70
79711;DHT22;69465;51.630;6.570;2023-06-05T04:40:04;12.50;55.90
79711;DHT22;69465;51.630;6.570;2023-06-05T04:42:32;12.50;55.80
79711;DHT22;69465;51.630;6.570;2023-06-05T04:45:02;12.60;55.50
79711;DHT22;69465;51.630;6.570;2023-06-05T04:47:30;12.60;55.30
79711;DHT22;69465;51.630;6.570;2023-06-05T04:50:05;12.70;55.40
79711;DHT22;69465;51.630;6.570;2023-06-05T04:52:33;12.70;55.00
79711;DHT22;69465;51.630;6.570;2023-06-05T04:55:00;12.70;55.10
79711;DHT22;69465;51.630;6.570;2023-06-05T04:57:26;12.80;55.10
79711;DHT22;69465;51.630;6.570;2023-06-05T04:59:54;12.80;54.60
79711;DHT22;69465;51.630;6.570;2023-06-05T05:02:21;12.90;54.80
79711;DHT22;69465;51.630;6.570;2023-06-05T05:04:47;13.00;54.40
79711;DHT22;69465;51.630;6.570;2023-06-05T05:07:14;13.20;54.10
79711;DHT22;69465;51.630;6.570;2023-06-05T05:09:44;13.60;53.00
79711;DHT22;69465;51.630;6.570;2023-06-05T05:12:11;14.20;51.50
79711;DHT22;69465;51.630;6.570;2023-06-05T05:14:38;15.00;50.00
79711;DHT22;69465;51.630;6.570;2023-06-05T05:17:05;15.90;46.70
79711;DHT22;69465;51.630;6.570;2023-06-05T05:19:32;16.60;44.90
79711;DHT22;69465;51.630;6.570;2023-06-05T05:21:58;17.40;43.40
79711;DHT22;69465;51.630;6.570;2023-06-05T05:24:25;18.10;41.60
79711;DHT22;69465;51.630;6.570;2023-06-05T05:26:52;18.70;40.20
79711;DHT22;69465;51.630;6.570;2023-06-05T05:29:18;19.40;39.00
79711;DHT22;69465;51.630;6.570;2023-06-05T05:31:45;20.00;37.90
79711;DHT22;69465;51.630;6.570;2023-06-05T05:34:12;20.60;36.50
79711;DHT22;69465;51.630;6.570;2023-06-05T05:36:39;21.10;35.50
79711;DHT22;69465;51.630;6.570;2023-06-05T05:39:05;21.60;33.90
79711;DHT22;69465;51.630;6.570;2023-06-05T05:41:33;22.10;33.30
79711;DHT22;69465;51.630;6.570;2023-06-05T05:43:59;22.40;32.30
79711;DHT22;69465;51.630;6.570;2023-06-05T05:46:26;22.60;31.80
79711;DHT22;69465;51.630;6.570;2023-06-05T05:48:53;22.80;31.10
79711;DHT22;69465;51.630;6.570;2023-06-05T05:51:20;23.00;30.80
79711;DHT22;69465;51.630;6.570;2023-06-05T05:53:47;22.80;31.20
79711;DHT22;69465;51.630;6.570;2023-06-05T05:56:13;23.00;30.90
79711;DHT22;69465;51.630;6.570;2023-06-05T05:58:40;23.20;31.10
79711;DHT22;69465;51.630;6.570;2023-06-05T06:01:07;23.50;30.00
79711;DHT22;69465;51.630;6.570;2023-06-05T06:03:34;23.70;29.90
79711;DHT22;69465;51.630;6.570;2023-06-05T06:06:01;24.10;28.70
79711;DHT22;69465;51.630;6.570;2023-06-05T06:08:27;24.30;28.90
79711;DHT22;69465;51.630;6.570;2023-06-05T06:10:54;24.60;28.10
79711;DHT22;69465;51.630;6.570;2023-06-05T06:13:21;24.60;28.00
79711;DHT22;69465;51.630;6.570;2023-06-05T06:15:48;24.50;28.60
79711;DHT22;69465;51.630;6.570;2023-06-05T06:18:14;24.50;28.80
79711;DHT22;69465;51.630;6.570;2023-06-05T06:20:41;24.90;28.00
79711;DHT22;69465;51.630;6.570;2023-06-05T06:23:08;25.00;28.10
79711;DHT22;69465;51.630;6.570;2023-06-05T06:25:35;25.40;27.70
79711;DHT22;69465;51.630;6.570;2023-06-05T06:28:02;25.70;26.80
79711;DHT22;69465;51.630;6.570;2023-06-05T06:30:29;25.70;26.30
79711;DHT22;69465;51.630;6.570;2023-06-05T06:32:57;25.70;26.50
79711;DHT22;69465;51.630;6.570;2023-06-05T06:35:25;25.70;26.80
79711;DHT22;69465;51.630;6.570;2023-06-05T06:37:55;26.00;25.90
79711;DHT22;69465;51.630;6.570;2023-06-05T06:40:22;25.90;26.50
79711;DHT22;69465;51.630;6.570;2023-06-05T06:42:50;26.00;26.40
79711;DHT22;69465;51.630;6.570;2023-06-05T06:45:17;26.00;26.10
79711;DHT22;69465;51.630;6.570;2023-06-05T06:47:44;25.80;25.80
79711;DHT22;69465;51.630;6.570;2023-06-05T06:50:24;26.00;26.40
79711;DHT22;69465;51.630;6.570;2023-06-05T06:52:51;26.30;25.80
79711;DHT22;69465;51.630;6.570;2023-06-05T06:55:18;26.50;25.90
79711;DHT22;69465;51.630;6.570;2023-06-05T06:57:45;26.30;25.80
79711;DHT22;69465;51.630;6.570;2023-06-05T07:00:12;26.30;25.80
79711;DHT22;69465;51.630;6.570;2023-06-05T07:02:39;26.60;25.90
79711;DHT22;69465;51.630;6.570;2023-06-05T07:05:07;26.90;26.50
79711;DHT22;69465;51.630;6.570;2023-06-05T07:07:33;27.10;25.50
79711;DHT22;69465;51.630;6.570;2023-06-05T07:10:00;27.40;24.90
79711;DHT22;69465;51.630;6.570;2023-06-05T07:12:26;27.50;24.80
79711;DHT22;69465;51.630;6.570;2023-06-05T07:14:53;27.60;24.70
79711;DHT22;69465;51.630;6.570;2023-06-05T07:17:20;27.90;24.80
79711;DHT22;69465;51.630;6.570;2023-06-05T07:19:47;28.10;24.70
79711;DHT22;69465;51.630;6.570;2023-06-05T07:22:14;28.20;23.90
79711;DHT22;69465;51.630;6.570;2023-06-05T07:24:41;28.20;24.20
79711;DHT22;69465;51.630;6.570;2023-06-05T07:27:08;28.30;23.50
79711;DHT22;69465;51.630;6.570;2023-06-05T07:29:35;28.10;23.40
79711;DHT22;69465;51.630;6.570;2023-06-05T07:32:02;28.30;23.70
79711;DHT22;69465;51.630;6.570;2023-06-05T07:34:28;28.20;23.90
79711;DHT22;69465;51.630;6.570;2023-06-05T07:36:55;28.30;23.80
79711;DHT22;69465;51.630;6.570;2023-06-05T07:39:22;28.10;23.30
79711;DHT22;69465;51.630;6.570;2023-06-05T07:41:49;28.10;24.10
79711;DHT22;69465;51.630;6.570;2023-06-05T07:44:18;28.20;24.30
79711;DHT22;69465;51.630;6.570;2023-06-05T07:46:46;28.30;25.20
79711;DHT22;69465;51.630;6.570;2023-06-05T07:49:13;28.30;24.40
79711;DHT22;69465;51.630;6.570;2023-06-05T07:51:40;28.40;24.70
79711;DHT22;69465;51.630;6.570;2023-06-05T07:54:08;28.50;23.80
79711;DHT22;69465;51.630;6.570;2023-06-05T07:56:36;28.60;24.20
79711;DHT22;69465;51.630;6.570;2023-06-05T07:59:04;28.80;23.60
79711;DHT22;69465;51.630;6.570;2023-06-05T08:01:32;28.70;23.80
79711;DHT22;69465;51.630;6.570;2023-06-05T08:03:59;28.50;23.90
79711;DHT22;69465;51.630;6.570;2023-06-05T08:06:26;28.50;23.90
79711;DHT22;69465;51.630;6.570;2023-06-05T08:08:53;29.00;24.40
79711;DHT22;69465;51.630;6.570;2023-06-05T08:11:19;28.80;23.80
79711;DHT22;69465;51.630;6.570;2023-06-05T08:13:46;28.90;23.60
79711;DHT22;69465;51.630;6.570;2023-06-05T08:16:13;29.20;23.40
79711;DHT22;69465;51.630;6.570;2023-06-05T08:18:39;29.10;23.70
79711;DHT22;69465;51.630;6.570;2023-06-05T08:21:06;29.20;24.10
79711;DHT22;69465;51.630;6.570;2023-06-05T08:23:33;29.60;24.70
79711;DHT22;69465;51.630;6.570;2023-06-05T08:26:02;29.50;23.40
79711;DHT22;69465;51.630;6.570;2023-06-05T08:28:28;29.30;23.30
79711;DHT22;69465;51.630;6.570;2023-06-05T08:30:55;29.50;23.40
79711;DHT22;69465;51.630;6.570;2023-06-05T08:33:22;29.40;23.20
79711;DHT22;69465;51.630;6.570;2023-06-05T08:35:48;29.10;22.80
79711;DHT22;69465;51.630;6.570;2023-06-05T08:38:15;29.40;23.10
79711;DHT22;69465;51.630;6.570;2023-06-05T08:40:43;29.70;23.90
79711;DHT22;69465;51.630;6.570;2023-06-05T08:43:10;29.50;23.40
79711;DHT22;69465;51.630;6.570;2023-06-05T08:45:36;29.40;23.30
79711;DHT22;69465;51.630;6.570;2023-06-05T08:48:05;29.60;23.50
79711;DHT22;69465;51.630;6.570;2023-06-05T08:50:33;29.50;23.00
79711;DHT22;69465;51.630;6.570;2023-06-05T08:53:02;29.50;23.40
79711;DHT22;69465;51.630;6.570;2023-06-05T08:55:28;29.50;23.70
79711;DHT22;69465;51.630;6.570;2023-06-05T08:57:56;29.50;24.20
79711;DHT22;69465;51.630;6.570;2023-06-05T09:00:23;29.80;24.40
79711;DHT22;69465;51.630;6.570;2023-06-05T09:02:50;29.60;23.10
79711;DHT22;69465;51.630;6.570;2023-06-05T09:05:17;29.90;23.60
79711;DHT22;69465;51.630;6.570;2023-06-05T09:07:43;30.00;22.60
79711;DHT22;69465;51.630;6.570;2023-06-05T09:10:23;29.80;22.40
79711;DHT22;69465;51.630;6.570;2023-06-05T09:12:54;29.50;22.70
79711;DHT22;69465;51.630;6.570;2023-06-05T09:15:28;29.60;22.90
79711;DHT22;69465;51.630;6.570;2023-06-05T09:20:37;29.20;23.60
79711;DHT22;69465;51.630;6.570;2023-06-05T09:23:20;29.30;24.00
79711;DHT22;69465;51.630;6.570;2023-06-05T09:25:50;29.10;23.40
79711;DHT22;69465;51.630;6.570;2023-06-05T09:28:17;29.40;23.90
79711;DHT22;69465;51.630;6.570;2023-06-05T09:31:02;29.70;23.80
79711;DHT22;69465;51.630;6.570;2023-06-05T09:33:33;29.90;23.50
79711;DHT22;69465;51.630;6.570;2023-06-05T09:36:11;30.00;22.40
79711;DHT22;69465;51.630;6.570;2023-06-05T09:38:40;29.80;23.50
79711;DHT22;69465;51.630;6.570;2023-06-05T09:41:12;30.00;23.60
79711;DHT22;69465;51.630;6.570;2023-06-05T09:43:39;30.40;22.70
79711;DHT22;69465;51.630;6.570;2023-06-05T09:46:07;30.60;22.20
79711;DHT22;69465;51.630;6.570;2023-06-05T09:48:34;30.60;21.60
79711;DHT22;69465;51.630;6.570;2023-06-05T09:51:19;30.90;22.00
79711;DHT22;69465;51.630;6.570;2023-06-05T09:53:49;30.70;22.60
79711;DHT22;69465;51.630;6.570;2023-06-05T09:56:18;30.70;21.70
79711;DHT22;69465;51.630;6.570;2023-06-05T09:58:46;30.80;21.90
79711;DHT22;69465;51.630;6.570;2023-06-05T10:01:19;31.20;22.10
79711;DHT22;69465;51.630;6.570;2023-06-05T10:03:50;31.40;22.10
79711;DHT22;69465;51.630;6.570;2023-06-05T10:06:19;31.60;21.60
79711;DHT22;69465;51.630;6.570;2023-06-05T10:08:48;31.60;20.30
79711;DHT22;69465;51.630;6.570;2023-06-05T10:11:16;31.60;21.10
79711;DHT22;69465;51.630;6.570;2023-06-05T10:13:44;31.80;21.50
79711;DHT22;69465;51.630;6.570;2023-06-05T10:16:11;31.60;21.40
79711;DHT22;69465;51.630;6.570;2023-06-05T10:18:51;31.50;20.90
79711;DHT22;69465;51.630;6.570;2023-06-05T10:21:19;31.50;21.30
79711;DHT22;69465;51.630;6.570;2023-06-05T10:23:54;31.50;22.20
79711;DHT22;69465;51.630;6.570;2023-06-05T10:29:02;31.00;22.20
79711;DHT22;69465;51.630;6.570;2023-06-05T10:31:47;31.00;21.90
79711;DHT22;69465;51.630;6.570;2023-06-05T10:34:28;30.80;22.90
79711;DHT22;69465;51.630;6.570;2023-06-05T10:40:09;31.00;22.20
79711;DHT22;69465;51.630;6.570;2023-06-05T10:42:37;31.20;21.80
79711;DHT22;69465;51.630;6.570;2023-06-05T10:45:04;31.30;22.50
79711;DHT22;69465;51.630;6.570;2023-06-05T10:52:44;31.20;21.00
79711;DHT22;69465;51.630;6.570;2023-06-05T10:55:11;31.20;22.20
79711;DHT22;69465;51.630;6.570;2023-06-05T11:00:33;31.30;21.20
79711;DHT22;69465;51.630;6.570;2023-06-05T11:03:00;31.70;20.10
79711;DHT22;69465;51.630;6.570;2023-06-05T11:05:28;31.60;21.20
79711;DHT22;69465;51.630;6.570;2023-06-05T11:08:15;31.40;20.20
79711;DHT22;69465;51.630;6.570;2023-06-05T11:11:04;31.20;22.30
79711;DHT22;69465;51.630;6.570;2023-06-05T11:13:56;31.10;22.20
79711;DHT22;69465;51.630;6.570;2023-06-05T11:24:30;29.60;21.40
79711;DHT22;69465;51.630;6.570;2023-06-05T11:26:57;29.30;23.70
79711;DHT22;69465;51.630;6.570;2023-06-05T11:29:24;28.90;23.10
79711;DHT22;69465;51.630;6.570;2023-06-05T11:31:51;28.60;24.20
79711;DHT22;69465;51.630;6.570;2023-06-05T11:34:18;28.30;24.60
79711;DHT22;69465;51.630;6.570;2023-06-05T11:36:45;28.10;24.70
79711;DHT22;69465;51.630;6.570;2023-06-05T11:39:12;27.90;23.90
79711;DHT22;69465;51.630;6.570;2023-06-05T11:41:46;27.60;23.50
79711;DHT22;69465;51.630;6.570;2023-06-05T11:44:30;27.40;25.30
79711;DHT22;69465;51.630;6.570;2023-06-05T11:46:56;27.20;25.10
79711;DHT22;69465;51.630;6.570;2023-06-05T11:49:28;27.20;22.40
79711;DHT22;69465;51.630;6.570;2023-06-05T11:51:55;27.10;22.10
79711;DHT22;69465;51.630;6.570;2023-06-05T11:54:32;26.90;25.20
79711;DHT22;69465;51.630;6.570;2023-06-05T11:57:03;26.90;25.10
79711;DHT22;69465;51.630;6.570;2023-06-05T11:59:30;26.80;25.70
79711;DHT22;69465;51.630;6.570;2023-06-05T12:01:57;26.80;26.10
79711;DHT22;69465;51.630;6.570;2023-06-05T12:04:23;26.80;22.80
79711;DHT22;69465;51.630;6.570;2023-06-05T12:06:50;26.80;24.70
79711;DHT22;69465;51.630;6.570;2023-06-05T12:09:17;26.80;26.10
79711;DHT22;69465;51.630;6.570;2023-06-05T12:11:45;26.90;23.50
79711;DHT22;69465;51.630;6.570;2023-06-05T12:14:13;26.80;22.50
79711;DHT22;69465;51.630;6.570;2023-06-05T12:16:53;26.90;25.20
79711;DHT22;69465;51.630;6.570;2023-06-05T12:19:20;26.90;24.10
79711;DHT22;69465;51.630;6.570;2023-06-05T12:21:47;26.90;23.60
79711;DHT22;69465;51.630;6.570;2023-06-05T12:24:15;26.80;25.20
79711;DHT22;69465;51.630;6.570;2023-06-05T12:26:55;26.90;23.80
79711;DHT22;69465;51.630;6.570;2023-06-05T12:29:30;26.90;24.20
79711;DHT22;69465;51.630;6.570;2023-06-05T12:31:59;26.90;22.70
79711;DHT22;69465;51.630;6.570;2023-06-05T12:34:44;26.90;23.40
79711;DHT22;69465;51.630;6.570;2023-06-05T12:37:26;26.90;23.70
79711;DHT22;69465;51.630;6.570;2023-06-05T12:39:53;26.80;24.80
79711;DHT22;69465;51.630;6.570;2023-06-05T12:42:20;26.80;22.40
79711;DHT22;69465;51.630;6.570;2023-06-05T12:44:47;26.80;23.40
79711;DHT22;69465;51.630;6.570;2023-06-05T12:47:14;27.00;26.10
79711;DHT22;69465;51.630;6.570;2023-06-05T12:49:41;27.00;24.00
79711;DHT22;69465;51.630;6.570;2023-06-05T12:52:08;27.00;22.60
79711;DHT22;69465;51.630;6.570;2023-06-05T12:54:38;27.00;22.10
79711;DHT22;69465;51.630;6.570;2023-06-05T12:57:05;27.00;24.10
79711;DHT22;69465;51.630;6.570;2023-06-05T12:59:33;27.10;24.30
79711;DHT22;69465;51.630;6.570;2023-06-05T13:02:00;27.20;24.60
79711;DHT22;69465;51.630;6.570;2023-06-05T13:04:27;27.30;21.70
79711;DHT22;69465;51.630;6.570;2023-06-05T13:06:53;27.20;24.90
79711;DHT22;69465;51.630;6.570;2023-06-05T13:09:20;27.10;22.60
79711;DHT22;69465;51.630;6.570;2023-06-05T13:11:47;27.00;22.10
79711;DHT22;69465;51.630;6.570;2023-06-05T13:14:14;27.00;21.50
79711;DHT22;69465;51.630;6.570;2023-06-05T13:16:41;26.80;23.90
79711;DHT22;69465;51.630;6.570;2023-06-05T13:19:08;26.80;23.70
79711;DHT22;69465;51.630;6.570;2023-06-05T13:21:35;26.80;23.50
79711;DHT22;69465;51.630;6.570;2023-06-05T13:24:01;26.90;23.00
79711;DHT22;69465;51.630;6.570;2023-06-05T13:26:28;27.00;22.90
79711;DHT22;69465;51.630;6.570;2023-06-05T13:28:55;27.00;23.50
79711;DHT22;69465;51.630;6.570;2023-06-05T13:31:22;27.00;23.90
79711;DHT22;69465;51.630;6.570;2023-06-05T13:33:48;27.10;23.50
79711;DHT22;69465;51.630;6.570;2023-06-05T13:36:15;27.10;23.20
79711;DHT22;69465;51.630;6.570;2023-06-05T13:38:42;27.20;23.30
79711;DHT22;69465;51.630;6.570;2023-06-05T13:41:09;27.10;25.20
79711;DHT22;69465;51.630;6.570;2023-06-05T13:43:36;27.20;24.70
79711;DHT22;69465;51.630;6.570;2023-06-05T13:46:02;27.20;23.30
79711;DHT22;69465;51.630;6.570;2023-06-05T13:48:30;27.10;22.80
79711;DHT22;69465;51.630;6.570;2023-06-05T13:50:56;27.20;23.80
79711;DHT22;69465;51.630;6.570;2023-06-05T13:53:23;27.10;21.70
79711;DHT22;69465;51.630;6.570;2023-06-05T13:55:50;27.00;21.50
79711;DHT22;69465;51.630;6.570;2023-06-05T13:58:17;26.90;20.90
79711;DHT22;69465;51.630;6.570;2023-06-05T14:00:44;26.90;22.90
79711;DHT22;69465;51.630;6.570;2023-06-05T14:03:12;26.90;23.60
79711;DHT22;69465;51.630;6.570;2023-06-05T14:05:39;26.90;23.60
79711;DHT22;69465;51.630;6.570;2023-06-05T14:08:06;26.90;21.70
79711;DHT22;69465;51.630;6.570;2023-06-05T14:10:33;26.90;21.60
79711;DHT22;69465;51.630;6.570;2023-06-05T14:12:59;26.90;21.60
79711;DHT22;69465;51.630;6.570;2023-06-05T14:15:26;26.90;21.80
79711;DHT22;69465;51.630;6.570;2023-06-05T14:17:53;26.90;20.90
79711;DHT22;69465;51.630;6.570;2023-06-05T14:20:19;26.90;22.90
79711;DHT22;69465;51.630;6.570;2023-06-05T14:22:47;27.00;21.90
79711;DHT22;69465;51.630;6.570;2023-06-05T14:25:14;26.90;22.50
79711;DHT22;69465;51.630;6.570;2023-06-05T14:27:41;26.90;23.80
79711;DHT22;69465;51.630;6.570;2023-06-05T14:30:07;27.00;23.90
79711;DHT22;69465;51.630;6.570;2023-06-05T14:32:35;26.90;22.00
79711;DHT22;69465;51.630;6.570;2023-06-05T14:35:01;27.00;22.40
79711;DHT22;69465;51.630;6.570;2023-06-05T14:37:28;26.90;22.70
79711;DHT22;69465;51.630;6.570;2023-06-05T14:39:55;27.00;22.10
79711;DHT22;69465;51.630;6.570;2023-06-05T14:42:22;27.00;20.90
79711;DHT22;69465;51.630;6.570;2023-06-05T14:44:49;27.00;24.50
79711;DHT22;69465;51.630;6.570;2023-06-05T14:47:16;27.10;22.10
79711;DHT22;69465;51.630;6.570;2023-06-05T14:49:42;27.10;21.50
79711;DHT22;69465;51.630;6.570;2023-06-05T14:52:09;27.10;21.00
79711;DHT22;69465;51.630;6.570;2023-06-05T14:54:36;27.10;20.70
79711;DHT22;69465;51.630;6.570;2023-06-05T14:57:02;27.00;21.20
79711;DHT22;69465;51.630;6.570;2023-06-05T14:59:29;27.00;21.10
79711;DHT22;69465;51.630;6.570;2023-06-05T15:01:55;27.00;22.10
79711;DHT22;69465;51.630;6.570;2023-06-05T15:04:24;27.00;20.40
79711;DHT22;69465;51.630;6.570;2023-06-05T15:06:51;26.90;22.20
79711;DHT22;69465;51.630;6.570;2023-06-05T15:09:18;26.90;23.60
79711;DHT22;69465;51.630;6.570;2023-06-05T15:11:45;26.90;23.20
79711;DHT22;69465;51.630;6.570;2023-06-05T15:14:12;26.70;22.90
79711;DHT22;69465;51.630;6.570;2023-06-05T15:16:38;26.70;23.00
79711;DHT22;69465;51.630;6.570;2023-06-05T15:19:09;26.70;21.90
79711;DHT22;69465;51.630;6.570;2023-06-05T15:21:35;26.80;23.30
79711;DHT22;69465;51.630;6.570;2023-06-05T15:24:02;26.80;23.00
79711;DHT22;69465;51.630;6.570;2023-06-05T15:26:29;26.80;22.20
79711;DHT22;69465;51.630;6.570;2023-06-05T15:28:56;26.70;22.00
79711;DHT22;69465;51.630;6.570;2023-06-05T15:31:22;26.60;20.80
79711;DHT22;69465;51.630;6.570;2023-06-05T15:33:49;26.60;21.10
79711;DHT22;69465;51.630;6.570;2023-06-05T15:36:16;26.60;22.70
79711;DHT22;69465;51.630;6.570;2023-06-05T15:38:42;26.60;22.40
79711;DHT22;69465;51.630;6.570;2023-06-05T15:41:10;26.50;21.60
79711;DHT22;69465;51.630;6.570;2023-06-05T15:43:40;26.50;23.50
79711;DHT22;69465;51.630;6.570;2023-06-05T15:46:07;26.50;23.10
79711;DHT22;69465;51.630;6.570;2023-06-05T15:48:33;26.50;22.70
79711;DHT22;69465;51.630;6.570;2023-06-05T15:51:00;26.40;21.80
79711;DHT22;69465;51.630;6.570;2023-06-05T15:53:27;26.40;23.10
79711;DHT22;69465;51.630;6.570;2023-06-05T15:55:56;26.40;23.20
79711;DHT22;69465;51.630;6.570;2023-06-05T15:58:23;26.30;22.70